createdAt,value
2018-07-16T00:01:58.427Z,4.70
2018-07-16T00:04:29.484Z,5.13
2018-07-16T00:07:00.544Z,4.83
2018-07-16T00:09:31.612Z,5.57
2018-07-16T00:12:02.922Z,4.83
2018-07-16T00:14:34.016Z,5.40
2018-07-16T00:17:05.182Z,5.80
2018-07-16T00:19:36.245Z,4.93
2018-07-16T00:22:07.407Z,4.97
2018-07-16T00:24:38.771Z,5.40
2018-07-16T00:27:10.066Z,6.17
2018-07-16T00:29:41.159Z,5.07
2018-07-16T00:32:12.480Z,5.63
2018-07-16T00:34:43.549Z,5.70
2018-07-16T00:37:14.785Z,8.53
2018-07-16T00:39:46.127Z,5.30
2018-07-16T00:42:18.291Z,7.37
2018-07-16T00:44:49.434Z,6.50
2018-07-16T00:47:20.558Z,7.30
2018-07-16T00:49:51.647Z,7.00
2018-07-16T00:52:22.669Z,6.93
2018-07-16T00:54:53.692Z,6.67
2018-07-16T00:57:24.669Z,6.00
2018-07-16T00:59:55.677Z,7.50
2018-07-16T01:02:26.770Z,6.57
2018-07-16T01:04:57.815Z,7.23
2018-07-16T01:07:29.648Z,5.40
2018-07-16T01:10:00.844Z,6.57
2018-07-16T01:12:31.915Z,6.17
2018-07-16T01:15:02.943Z,5.57
2018-07-16T01:17:33.934Z,5.93
2018-07-16T01:20:05.019Z,6.03
2018-07-16T01:22:36.213Z,7.07
2018-07-16T01:25:07.460Z,5.80
2018-07-16T01:27:38.646Z,5.40
2018-07-16T01:30:09.800Z,4.70
2018-07-16T01:32:40.895Z,4.50
2018-07-16T01:35:12.140Z,5.20
2018-07-16T01:37:43.130Z,5.03
2018-07-16T01:40:14.143Z,5.17
2018-07-16T01:42:46.863Z,6.57
2018-07-16T01:45:18.711Z,5.30
2018-07-16T01:47:50.146Z,5.50
2018-07-16T01:50:22.488Z,7.00
2018-07-16T01:52:54.129Z,6.80
2018-07-16T01:55:26.057Z,7.40
2018-07-16T01:57:58.264Z,5.80
2018-07-16T02:00:32.338Z,5.93
2018-07-16T02:03:03.679Z,5.30
2018-07-16T02:05:35.406Z,5.80
2018-07-16T02:08:07.395Z,5.40
2018-07-16T02:10:38.680Z,6.67
2018-07-16T02:13:10.165Z,6.33
2018-07-16T02:15:42.907Z,5.97
2018-07-16T02:18:15.315Z,6.70
2018-07-16T02:20:47.588Z,6.33
2018-07-16T02:23:18.914Z,6.73
2018-07-16T02:25:55.197Z,6.37
2018-07-16T02:28:27.698Z,7.70
2018-07-16T02:30:58.949Z,5.60
2018-07-16T02:33:29.060Z,6.07
2018-07-16T02:36:00.241Z,6.10
2018-07-16T02:38:31.440Z,5.83
2018-07-16T02:41:02.676Z,7.70
2018-07-16T02:43:34.060Z,7.73
2018-07-16T02:46:05.401Z,6.90
2018-07-16T02:48:36.624Z,8.03
2018-07-16T02:51:07.916Z,6.50
2018-07-16T02:53:39.253Z,6.10
2018-07-16T02:56:10.426Z,6.73
2018-07-16T02:58:41.624Z,7.83
2018-07-16T03:01:13.933Z,8.33
2018-07-16T03:03:45.078Z,10.07
2018-07-16T03:06:16.325Z,10.83
2018-07-16T03:08:47.488Z,10.13
2018-07-16T03:11:18.528Z,10.80
2018-07-16T03:13:49.497Z,9.80
2018-07-16T03:16:20.639Z,9.20
2018-07-16T03:18:51.648Z,7.97
2018-07-16T03:21:23.425Z,8.30
2018-07-16T03:23:54.773Z,8.63
2018-07-16T03:26:25.813Z,9.27
2018-07-16T03:28:57.055Z,7.90
2018-07-16T03:31:28.275Z,8.53
2018-07-16T03:33:59.588Z,8.03
2018-07-16T03:36:30.846Z,9.63
2018-07-16T03:39:00.907Z,7.83
2018-07-16T03:41:31.902Z,7.10
2018-07-16T03:44:03.049Z,7.43
2018-07-16T03:46:34.178Z,7.53
2018-07-16T03:49:05.386Z,7.67
2018-07-16T03:51:36.460Z,8.37
2018-07-16T03:54:07.660Z,8.43
2018-07-16T03:56:38.862Z,8.70
2018-07-16T03:59:10.215Z,8.17
2018-07-16T04:01:41.605Z,8.53
2018-07-16T04:04:12.968Z,8.90
2018-07-16T04:06:43.975Z,8.80
2018-07-16T04:09:15.532Z,8.93
2018-07-16T04:11:46.591Z,9.10
2018-07-16T04:14:17.652Z,10.77
2018-07-16T04:16:48.941Z,9.97
2018-07-16T04:19:20.220Z,9.50
2018-07-16T04:21:51.474Z,9.73
2018-07-16T04:24:22.715Z,10.13
2018-07-16T04:26:53.882Z,9.47
2018-07-16T04:29:24.996Z,8.20
2018-07-16T04:31:56.340Z,8.50
2018-07-16T04:34:27.652Z,8.63
2018-07-16T04:36:58.948Z,8.60
2018-07-16T04:39:30.215Z,8.77
2018-07-16T04:42:01.320Z,10.10
2018-07-16T04:44:32.672Z,9.37
2018-07-16T04:47:03.959Z,9.03
2018-07-16T04:49:35.136Z,8.50
2018-07-16T04:52:06.400Z,9.23
2018-07-16T04:54:37.460Z,9.23
2018-07-16T04:57:08.732Z,9.00
2018-07-16T04:59:39.950Z,10.90
2018-07-16T05:02:11.279Z,8.77
2018-07-16T05:04:42.442Z,10.87
2018-07-16T05:07:13.768Z,12.07
2018-07-16T05:09:44.935Z,11.10
2018-07-16T05:12:16.187Z,11.93
2018-07-16T05:14:47.523Z,12.80
2018-07-16T05:17:18.822Z,13.73
2018-07-16T05:19:49.927Z,14.33
2018-07-16T05:22:21.189Z,13.83
2018-07-16T05:24:52.434Z,12.50
2018-07-16T05:27:23.590Z,14.27
2018-07-16T05:29:54.685Z,14.93
2018-07-16T05:32:26.044Z,12.50
2018-07-16T05:34:57.138Z,12.00
2018-07-16T05:37:28.245Z,11.07
2018-07-16T05:39:59.321Z,11.43
2018-07-16T05:42:30.616Z,10.20
2018-07-16T05:45:01.761Z,9.80
2018-07-16T05:47:32.846Z,10.93
2018-07-16T05:50:03.991Z,14.00
2018-07-16T05:52:35.383Z,13.90
2018-07-16T05:55:06.538Z,15.67
2018-07-16T05:57:37.832Z,15.67
2018-07-16T06:00:09.040Z,13.27
2018-07-16T06:02:40.200Z,12.10
2018-07-16T06:05:11.479Z,12.80
2018-07-16T06:07:42.766Z,12.03
2018-07-16T06:10:14.054Z,11.67
2018-07-16T06:12:44.186Z,10.67
2018-07-16T06:15:14.343Z,10.20
2018-07-16T06:17:45.560Z,11.00
2018-07-16T06:20:16.764Z,11.47
2018-07-16T06:22:47.892Z,11.23
2018-07-16T06:25:19.072Z,11.20
2018-07-16T06:27:49.248Z,11.97
2018-07-16T06:30:20.313Z,10.70
2018-07-16T06:32:51.516Z,11.37
2018-07-16T06:35:22.731Z,11.43
2018-07-16T06:37:54.008Z,11.97
2018-07-16T06:40:25.314Z,11.17
2018-07-16T06:42:56.339Z,10.17
2018-07-16T06:45:27.440Z,10.43
2018-07-16T06:47:58.596Z,11.03
2018-07-16T06:50:29.807Z,11.07
2018-07-16T06:53:01.006Z,10.00
2018-07-16T06:55:32.277Z,10.37
2018-07-16T06:58:03.557Z,9.63
2018-07-16T07:00:34.683Z,10.17
2018-07-16T07:03:05.795Z,10.57
2018-07-16T07:05:36.947Z,10.83
2018-07-16T07:08:08.243Z,9.47
2018-07-16T07:10:39.474Z,10.87
2018-07-16T07:13:10.876Z,9.67
2018-07-16T07:15:42.244Z,11.13
2018-07-16T07:18:13.587Z,11.60
2018-07-16T07:20:44.811Z,10.70
2018-07-16T07:23:16.049Z,12.07
2018-07-16T07:25:47.345Z,12.30
2018-07-16T07:28:18.696Z,9.90
2018-07-16T07:30:49.862Z,11.03
2018-07-16T07:33:20.932Z,13.43
2018-07-16T07:35:52.129Z,10.27
2018-07-16T07:38:23.255Z,10.00
2018-07-16T07:40:54.476Z,10.93
2018-07-16T07:43:25.727Z,11.07
2018-07-16T07:45:56.867Z,9.43
2018-07-16T07:48:28.084Z,9.23
2018-07-16T07:50:59.232Z,9.47
2018-07-16T07:53:30.428Z,8.67
2018-07-16T07:56:01.693Z,9.50
2018-07-16T07:58:32.931Z,8.90
2018-07-16T08:01:04.123Z,8.97
2018-07-16T08:03:35.523Z,8.93
2018-07-16T08:06:06.746Z,8.73
2018-07-16T08:08:39.129Z,8.80
2018-07-16T08:11:10.630Z,8.30
2018-07-16T08:13:41.825Z,9.13
2018-07-16T08:16:13.224Z,9.07
2018-07-16T08:18:44.653Z,8.83
2018-07-16T08:21:16.022Z,9.43
2018-07-16T08:23:47.227Z,10.73
2018-07-16T08:26:18.332Z,9.90
2018-07-16T08:28:49.646Z,10.87
2018-07-16T08:31:21.102Z,12.00
2018-07-16T08:33:52.456Z,13.27
2018-07-16T08:36:23.760Z,10.30
2018-07-16T08:38:55.144Z,10.50
2018-07-16T08:41:26.381Z,10.00
2018-07-16T08:43:57.659Z,10.50
2018-07-16T08:46:28.947Z,9.70
2018-07-16T08:49:00.472Z,11.20
2018-07-16T08:51:32.076Z,10.57
2018-07-16T08:54:03.279Z,11.03
2018-07-16T08:56:34.532Z,10.63
2018-07-16T08:59:06.303Z,10.53
2018-07-16T09:01:37.487Z,9.70
2018-07-16T09:04:09.056Z,10.70
2018-07-16T09:06:40.317Z,9.47
2018-07-16T09:09:11.498Z,9.83
2018-07-16T09:11:42.614Z,10.23
2018-07-16T09:14:13.839Z,10.73
2018-07-16T09:16:45.227Z,10.40
2018-07-16T09:19:16.626Z,10.23
2018-07-16T09:21:46.869Z,10.37
2018-07-16T09:24:18.061Z,9.53
2018-07-16T09:26:49.453Z,10.07
2018-07-16T09:29:20.680Z,10.73
2018-07-16T09:31:51.855Z,10.27
2018-07-16T09:34:23.098Z,10.43
2018-07-16T09:36:54.275Z,10.50
2018-07-16T09:39:24.358Z,10.50
2018-07-16T09:41:55.505Z,11.30
2018-07-16T09:44:26.762Z,10.60
2018-07-16T09:46:58.005Z,9.70
2018-07-16T09:49:29.170Z,9.53
2018-07-16T09:52:00.245Z,10.33
2018-07-16T09:54:31.402Z,10.10
2018-07-16T09:57:02.563Z,10.37
2018-07-16T09:59:33.736Z,10.03
2018-07-16T10:02:09.585Z,10.23
2018-07-16T10:04:40.779Z,10.30
2018-07-16T10:07:11.930Z,10.17
2018-07-16T10:09:43.137Z,10.23
2018-07-16T10:12:14.254Z,10.40
2018-07-16T10:14:45.358Z,10.10
2018-07-16T10:17:16.611Z,10.10
2018-07-16T10:19:47.852Z,8.97
2018-07-16T10:22:18.845Z,10.20
2018-07-16T10:24:50.017Z,11.37
2018-07-16T10:27:21.291Z,10.80
2018-07-16T10:29:52.708Z,11.50
2018-07-16T10:32:23.873Z,12.63
2018-07-16T10:34:55.005Z,12.50
2018-07-16T10:37:26.513Z,12.13
2018-07-16T10:39:57.733Z,12.97
2018-07-16T10:42:29.099Z,12.17
2018-07-16T10:45:00.241Z,12.43
2018-07-16T10:47:31.333Z,11.87
2018-07-16T10:50:02.484Z,12.70
2018-07-16T10:52:33.561Z,12.27
2018-07-16T10:55:05.221Z,11.90
2018-07-16T10:57:35.410Z,12.00
2018-07-16T11:00:06.808Z,12.73
2018-07-16T11:02:38.072Z,12.37
2018-07-16T11:05:09.332Z,12.43
2018-07-16T11:07:40.718Z,12.50
2018-07-16T11:10:11.862Z,13.83
2018-07-16T11:12:43.198Z,12.60
2018-07-16T11:15:14.385Z,12.70
2018-07-16T11:17:45.816Z,14.43
2018-07-16T11:20:17.004Z,12.67
2018-07-16T11:22:48.240Z,13.17
2018-07-16T11:25:19.424Z,13.20
2018-07-16T11:27:50.672Z,12.80
2018-07-16T11:30:21.885Z,13.13
2018-07-16T11:32:53.262Z,12.60
2018-07-16T11:35:24.660Z,12.57
2018-07-16T11:37:56.435Z,13.47
2018-07-16T11:40:27.548Z,13.30
2018-07-16T11:42:58.616Z,13.20
2018-07-16T11:45:28.775Z,14.23
2018-07-16T11:47:59.938Z,14.27
2018-07-16T11:50:31.271Z,13.10
2018-07-16T11:53:02.349Z,13.87
2018-07-16T11:55:33.641Z,12.83
2018-07-16T11:58:04.723Z,12.90
2018-07-16T12:00:35.789Z,13.30
2018-07-16T12:03:07.199Z,12.63
2018-07-16T12:05:38.385Z,12.70
2018-07-16T12:08:09.635Z,12.33
2018-07-16T12:10:40.861Z,12.10
2018-07-16T12:13:11.939Z,13.23
2018-07-16T12:15:43.063Z,12.23
2018-07-16T12:18:14.503Z,11.53
2018-07-16T12:20:45.776Z,11.23
2018-07-16T12:23:17.092Z,12.00
2018-07-16T12:25:48.198Z,11.80
2018-07-16T12:28:19.208Z,11.53
2018-07-16T12:30:50.309Z,10.70
2018-07-16T12:33:21.424Z,11.67
2018-07-16T12:35:52.519Z,11.83
2018-07-16T12:38:23.649Z,12.50
2018-07-16T12:40:54.694Z,12.03
2018-07-16T12:43:25.770Z,12.17
2018-07-16T12:45:56.837Z,11.27
2018-07-16T12:48:27.992Z,11.60
2018-07-16T12:50:59.097Z,11.87
2018-07-16T12:53:30.392Z,10.90
2018-07-16T12:56:01.481Z,11.70
2018-07-16T12:58:32.718Z,11.50
2018-07-16T13:01:04.015Z,11.67
2018-07-16T13:03:36.081Z,11.63
2018-07-16T13:06:07.309Z,11.40
2018-07-16T13:08:38.406Z,11.33
2018-07-16T13:11:09.689Z,10.63
2018-07-16T13:13:40.789Z,9.93
2018-07-16T13:16:11.971Z,10.53
2018-07-16T13:18:43.392Z,10.50
2018-07-16T13:21:14.426Z,10.57
2018-07-16T13:23:45.549Z,11.47
2018-07-16T13:26:16.632Z,12.13
2018-07-16T13:28:46.718Z,11.60
2018-07-16T13:31:17.922Z,10.67
2018-07-16T13:33:49.146Z,10.70
2018-07-16T13:36:21.821Z,11.43
2018-07-16T13:38:53.972Z,11.77
2018-07-16T13:41:25.216Z,12.30
2018-07-16T13:43:56.328Z,12.90
2018-07-16T13:46:27.539Z,12.20
2018-07-16T13:48:59.542Z,12.13
2018-07-16T13:51:30.903Z,12.50
2018-07-16T13:54:02.715Z,12.10
2018-07-16T13:56:34.242Z,11.07
2018-07-16T13:59:05.381Z,11.83
2018-07-16T14:01:35.569Z,11.63
2018-07-16T14:04:07.555Z,11.17
2018-07-16T14:06:38.762Z,11.40
2018-07-16T14:09:10.642Z,10.93
2018-07-16T14:11:42.540Z,12.33
2018-07-16T14:14:13.810Z,10.97
2018-07-16T14:16:44.778Z,10.57
2018-07-16T14:19:15.835Z,10.67
2018-07-16T14:21:46.930Z,11.43
2018-07-16T14:24:18.066Z,10.63
2018-07-16T14:26:49.096Z,10.30
2018-07-16T14:29:20.189Z,11.07
2018-07-16T14:31:51.435Z,10.20
2018-07-16T14:34:22.451Z,10.57
2018-07-16T14:36:53.460Z,10.10
2018-07-16T14:39:24.692Z,11.37
2018-07-16T14:41:55.717Z,10.33
2018-07-16T14:44:27.114Z,9.90
2018-07-16T14:46:58.339Z,11.20
2018-07-16T14:49:29.427Z,10.23
2018-07-16T14:52:00.768Z,9.87
2018-07-16T14:54:32.056Z,9.90
2018-07-16T14:57:02.435Z,10.90
2018-07-16T14:59:33.660Z,10.07
2018-07-16T15:02:05.029Z,9.20
2018-07-16T15:04:36.385Z,10.00
2018-07-16T15:07:07.845Z,10.20
2018-07-16T15:09:39.424Z,9.83
2018-07-16T15:12:10.968Z,11.13
2018-07-16T15:14:42.121Z,10.57
2018-07-16T15:17:12.957Z,10.00
2018-07-16T15:19:44.211Z,10.73
2018-07-16T15:22:15.389Z,10.53
2018-07-16T15:24:46.919Z,10.43
2018-07-16T15:27:17.999Z,10.40
2018-07-16T15:29:49.156Z,11.00
2018-07-16T15:32:20.230Z,10.70
2018-07-16T15:34:51.317Z,10.17
2018-07-16T15:37:22.514Z,10.63
2018-07-16T15:39:53.819Z,10.30
2018-07-16T15:42:24.979Z,10.47
2018-07-16T15:44:56.230Z,9.97
2018-07-16T15:47:27.252Z,10.10
2018-07-16T15:49:58.323Z,10.73
2018-07-16T15:52:29.235Z,10.17
2018-07-16T15:55:00.419Z,10.20
2018-07-16T15:57:31.634Z,10.67
2018-07-16T16:00:02.841Z,10.63
2018-07-16T16:02:34.035Z,11.23
2018-07-16T16:05:05.248Z,10.53
2018-07-16T16:07:36.366Z,10.67
2018-07-16T16:10:07.447Z,10.73
2018-07-16T16:12:38.420Z,10.63
2018-07-16T16:15:09.430Z,9.93
2018-07-16T16:17:40.476Z,9.73
2018-07-16T16:20:11.894Z,9.67
2018-07-16T16:22:43.083Z,9.87
2018-07-16T16:25:14.309Z,8.67
2018-07-16T16:27:46.003Z,9.83
2018-07-16T16:30:17.039Z,10.50
2018-07-16T16:36:19.280Z,10.53
2018-07-16T16:38:50.438Z,10.70
2018-07-16T16:41:22.410Z,10.57
2018-07-16T16:43:53.545Z,10.33
2018-07-16T16:46:24.999Z,10.67
2018-07-16T16:48:55.963Z,10.83
2018-07-16T16:51:26.978Z,9.80
2018-07-16T16:53:58.215Z,9.83
2018-07-16T16:56:29.479Z,10.20
2018-07-16T16:59:00.785Z,9.80
2018-07-16T17:01:32.483Z,9.73
2018-07-16T17:04:03.713Z,10.20
2018-07-16T17:06:34.765Z,9.93
2018-07-16T17:09:06.979Z,9.33
2018-07-16T17:11:37.947Z,9.43
2018-07-16T17:14:09.011Z,8.90
2018-07-16T17:16:39.967Z,9.13
2018-07-16T17:19:11.108Z,8.20
2018-07-16T17:21:42.424Z,8.30
2018-07-16T17:24:13.672Z,8.87
2018-07-16T17:26:44.914Z,8.20
2018-07-16T17:29:15.988Z,8.17
2018-07-16T17:31:47.375Z,6.60
2018-07-16T17:34:18.813Z,6.23
2018-07-16T17:36:49.105Z,6.30
2018-07-16T17:39:21.265Z,5.60
2018-07-16T17:41:52.417Z,6.60
2018-07-16T17:44:23.568Z,7.17
2018-07-16T17:46:54.764Z,6.63
2018-07-16T17:49:25.972Z,7.17
2018-07-16T17:51:57.280Z,6.77
2018-07-16T17:54:28.567Z,7.13
2018-07-16T17:56:59.790Z,6.80
2018-07-16T17:59:31.041Z,6.70
2018-07-16T18:02:03.229Z,7.57
2018-07-16T18:04:34.581Z,6.80
2018-07-16T18:07:05.748Z,7.10
2018-07-16T18:09:37.182Z,6.87
2018-07-16T18:12:08.360Z,6.90
2018-07-16T18:14:39.524Z,6.47
2018-07-16T18:17:10.658Z,5.50
2018-07-16T18:19:41.844Z,6.30
2018-07-16T18:22:13.112Z,6.03
2018-07-16T18:24:44.312Z,6.20
2018-07-16T18:27:16.489Z,5.67
2018-07-16T18:29:48.108Z,6.20
2018-07-16T18:32:19.300Z,5.33
2018-07-16T18:34:50.803Z,5.13
2018-07-16T18:37:23.223Z,4.70
2018-07-16T18:39:54.742Z,5.33
2018-07-16T18:42:25.992Z,5.30
2018-07-16T18:44:57.347Z,5.67
2018-07-16T18:47:28.763Z,5.93
2018-07-16T18:50:00.013Z,5.53
2018-07-16T18:52:31.282Z,5.90
2018-07-16T18:55:02.557Z,5.53
2018-07-16T18:57:33.717Z,6.40
2018-07-16T19:00:05.401Z,5.70
2018-07-16T19:02:36.714Z,7.10
2018-07-16T19:05:08.658Z,5.57
2018-07-16T19:07:40.120Z,7.83
2018-07-16T19:10:11.408Z,7.50
2018-07-16T19:12:43.491Z,6.97
2018-07-16T19:15:19.502Z,7.00
2018-07-16T19:17:49.649Z,6.70
2018-07-16T19:20:20.771Z,6.93
2018-07-16T19:22:52.119Z,7.17
2018-07-16T19:25:23.209Z,7.47
2018-07-16T19:27:54.477Z,7.03
2018-07-16T19:30:25.993Z,6.73
2018-07-16T19:32:57.413Z,7.23
2018-07-16T19:35:28.600Z,13.07
2018-07-16T19:37:59.687Z,8.20
2018-07-16T19:40:31.017Z,7.63
2018-07-16T19:43:02.254Z,7.87
2018-07-16T19:45:33.533Z,7.57
2018-07-16T19:48:04.694Z,7.70
2018-07-16T19:50:35.831Z,8.10
2018-07-16T19:53:07.361Z,7.07
2018-07-16T19:55:39.322Z,7.27
2018-07-16T19:58:10.598Z,7.23
2018-07-16T20:00:41.956Z,7.90
2018-07-16T20:03:13.396Z,8.07
2018-07-16T20:05:44.661Z,8.00
2018-07-16T20:08:17.745Z,7.53
2018-07-16T20:10:49.027Z,7.93
2018-07-16T20:13:20.577Z,8.30
2018-07-16T20:15:52.756Z,7.50
2018-07-16T20:18:24.235Z,7.33
2018-07-16T20:21:01.016Z,7.40
2018-07-16T20:23:32.504Z,7.27
2018-07-16T20:26:03.780Z,7.83
2018-07-16T20:28:35.059Z,7.43
2018-07-16T20:31:06.396Z,7.97
2018-07-16T20:33:38.279Z,6.90
2018-07-16T20:36:11.122Z,7.10
2018-07-16T20:38:42.331Z,7.27
2018-07-16T20:41:13.418Z,7.13
2018-07-16T20:43:44.681Z,7.10
2018-07-16T20:46:14.939Z,6.80
2018-07-16T20:48:46.408Z,7.33
2018-07-16T20:51:17.590Z,7.37
2018-07-16T20:53:49.892Z,7.43
2018-07-16T20:56:21.306Z,7.20
2018-07-16T20:58:52.699Z,7.50
2018-07-16T21:01:23.803Z,7.40
2018-07-16T21:03:54.091Z,7.63
2018-07-16T21:06:25.361Z,8.00
2018-07-16T21:08:56.613Z,7.43
2018-07-16T21:11:28.045Z,8.07
2018-07-16T21:13:59.507Z,7.60
2018-07-16T21:16:30.832Z,7.33
2018-07-16T21:19:02.124Z,7.63
2018-07-16T21:21:33.574Z,7.13
2018-07-16T21:24:04.995Z,7.40
2018-07-16T21:26:36.229Z,7.47
2018-07-16T21:29:07.742Z,7.63
2018-07-16T21:31:39.688Z,8.33
2018-07-16T21:34:10.776Z,8.57
2018-07-16T21:36:42.178Z,7.40
2018-07-16T21:39:13.334Z,7.97
2018-07-16T21:41:44.454Z,7.37
2018-07-16T21:44:15.704Z,7.20
2018-07-16T21:46:46.929Z,8.03
2018-07-16T21:49:18.324Z,7.10
2018-07-16T21:51:49.463Z,7.30
2018-07-16T21:54:20.646Z,7.10
2018-07-16T21:56:52.662Z,7.97
2018-07-16T21:59:24.052Z,7.30
2018-07-16T22:01:55.323Z,6.50
2018-07-16T22:04:26.682Z,7.17
2018-07-16T22:06:57.843Z,7.03
2018-07-16T22:09:29.542Z,7.00
2018-07-16T22:12:00.761Z,7.00
2018-07-16T22:14:31.998Z,6.63
2018-07-16T22:17:03.495Z,7.10
2018-07-16T22:19:34.761Z,7.40
2018-07-16T22:22:06.085Z,7.30
2018-07-16T22:24:37.568Z,7.30
2018-07-16T22:27:08.999Z,7.10
2018-07-16T22:29:40.382Z,7.07
2018-07-16T22:32:11.586Z,8.53
2018-07-16T22:34:42.823Z,7.70
2018-07-16T22:37:14.199Z,6.67
2018-07-16T22:39:45.474Z,8.77
2018-07-16T22:42:16.788Z,7.30
2018-07-16T22:44:48.141Z,6.77
2018-07-16T22:47:19.334Z,8.83
2018-07-16T22:49:50.633Z,7.03
2018-07-16T22:52:21.971Z,8.20
2018-07-16T22:54:53.225Z,7.97
2018-07-16T22:57:24.571Z,8.07
2018-07-16T22:59:55.916Z,7.97
2018-07-16T23:02:27.236Z,7.77
2018-07-16T23:04:58.607Z,7.77
2018-07-16T23:07:29.813Z,7.30
2018-07-16T23:10:01.170Z,7.50
2018-07-16T23:12:32.583Z,7.33
2018-07-16T23:15:03.864Z,8.00
2018-07-16T23:17:35.174Z,7.47
2018-07-16T23:20:06.565Z,7.63
2018-07-16T23:22:46.753Z,7.40
2018-07-16T23:25:17.980Z,8.20
2018-07-16T23:27:49.694Z,7.90
2018-07-16T23:30:20.952Z,8.90
2018-07-16T23:32:52.303Z,8.97
2018-07-16T23:35:23.674Z,7.87
2018-07-16T23:37:54.876Z,8.50
2018-07-16T23:40:26.037Z,8.27
2018-07-16T23:42:57.273Z,8.53
2018-07-16T23:45:28.542Z,8.80
2018-07-16T23:47:59.712Z,8.93
2018-07-16T23:50:30.944Z,8.33
2018-07-16T23:53:02.081Z,9.23
2018-07-16T23:55:33.221Z,8.83
2018-07-16T23:58:04.314Z,9.33
